createdAt,value
2018-10-11T00:02:28.800Z,100.00
2018-10-11T00:04:57.588Z,100.00
2018-10-11T00:07:26.417Z,100.00
2018-10-11T00:09:55.218Z,100.00
2018-10-11T00:12:23.980Z,100.00
2018-10-11T00:14:52.704Z,100.00
2018-10-11T00:17:21.448Z,100.00
2018-10-11T00:19:50.223Z,100.00
2018-10-11T00:22:18.932Z,100.00
2018-10-11T00:24:47.674Z,100.00
2018-10-11T00:27:16.428Z,100.00
2018-10-11T00:29:45.172Z,100.00
2018-10-11T00:32:13.912Z,100.00
2018-10-11T00:34:42.623Z,100.00
2018-10-11T00:37:11.369Z,100.00
2018-10-11T00:39:40.095Z,100.00
2018-10-11T00:42:08.851Z,100.00
2018-10-11T00:44:37.577Z,100.00
2018-10-11T00:47:06.313Z,100.00
2018-10-11T00:49:35.154Z,100.00
2018-10-11T00:52:03.800Z,100.00
2018-10-11T00:54:32.578Z,100.00
2018-10-11T00:57:01.315Z,100.00
2018-10-11T00:59:30.045Z,100.00
2018-10-11T01:01:58.773Z,100.00
2018-10-11T01:04:27.513Z,100.00
2018-10-11T01:06:56.314Z,100.00
2018-10-11T01:09:25.179Z,100.00
2018-10-11T01:11:53.850Z,100.00
2018-10-11T01:14:22.594Z,100.00
2018-10-11T01:16:51.381Z,100.00
2018-10-11T01:19:20.150Z,100.00
2018-10-11T01:21:48.961Z,100.00
2018-10-11T01:24:17.730Z,100.00
2018-10-11T01:26:46.450Z,100.00
2018-10-11T01:29:15.140Z,100.00
2018-10-11T01:31:43.876Z,100.00
2018-10-11T01:34:12.769Z,100.00
2018-10-11T01:36:41.558Z,100.00
2018-10-11T01:39:10.300Z,100.00
2018-10-11T01:41:39.167Z,100.00
2018-10-11T01:44:07.921Z,100.00
2018-10-11T01:46:36.760Z,100.00
2018-10-11T01:49:05.554Z,100.00
2018-10-11T01:51:34.376Z,100.00
2018-10-11T01:54:03.136Z,100.00
2018-10-11T01:56:31.941Z,100.00
2018-10-11T01:59:00.722Z,100.00
2018-10-11T02:01:29.511Z,100.00
2018-10-11T02:03:58.241Z,100.00
2018-10-11T02:06:27.101Z,100.00
2018-10-11T02:08:55.849Z,100.00
2018-10-11T02:11:24.564Z,100.00
2018-10-11T02:13:53.319Z,100.00
2018-10-11T02:16:22.058Z,100.00
2018-10-11T02:18:50.764Z,100.00
2018-10-11T02:21:19.528Z,100.00
2018-10-11T02:23:48.300Z,100.00
2018-10-11T02:26:18.591Z,100.00
2018-10-11T02:28:47.440Z,100.00
2018-10-11T02:31:16.238Z,100.00
2018-10-11T02:33:44.953Z,100.00
2018-10-11T02:36:13.708Z,100.00
2018-10-11T02:38:42.462Z,100.00
2018-10-11T02:41:11.237Z,100.00
2018-10-11T02:43:40.025Z,100.00
2018-10-11T02:46:08.818Z,100.00
2018-10-11T02:48:37.605Z,100.00
2018-10-11T02:51:06.579Z,100.00
2018-10-11T02:53:35.348Z,100.00
2018-10-11T02:56:04.409Z,100.00
2018-10-11T02:58:44.021Z,100.00
2018-10-11T03:01:12.879Z,100.00
2018-10-11T03:03:41.769Z,100.00
2018-10-11T03:06:10.605Z,100.00
2018-10-11T03:08:39.470Z,100.00
2018-10-11T03:11:08.346Z,100.00
2018-10-11T03:13:37.106Z,100.00
2018-10-11T03:16:05.882Z,100.00
2018-10-11T03:18:34.642Z,100.00
2018-10-11T03:21:03.468Z,100.00
2018-10-11T03:23:32.176Z,100.00
2018-10-11T03:26:00.917Z,100.00
2018-10-11T03:28:29.652Z,100.00
2018-10-11T03:30:58.393Z,100.00
2018-10-11T03:33:27.138Z,100.00
2018-10-11T03:35:55.923Z,100.00
2018-10-11T03:38:24.686Z,100.00
2018-10-11T03:40:53.444Z,100.00
2018-10-11T03:43:22.204Z,100.00
2018-10-11T03:45:50.976Z,100.00
2018-10-11T03:48:19.761Z,100.00
2018-10-11T03:50:48.524Z,100.00
2018-10-11T03:53:17.300Z,100.00
2018-10-11T03:55:46.028Z,100.00
2018-10-11T03:58:14.776Z,100.00
2018-10-11T04:00:43.593Z,100.00
2018-10-11T04:03:12.337Z,100.00
2018-10-11T04:05:41.079Z,100.00
2018-10-11T04:08:09.815Z,100.00
2018-10-11T04:10:38.572Z,100.00
2018-10-11T04:13:07.286Z,100.00
2018-10-11T04:15:36.101Z,100.00
2018-10-11T04:18:04.832Z,100.00
2018-10-11T04:20:33.549Z,100.00
2018-10-11T04:23:02.334Z,100.00
2018-10-11T04:25:31.111Z,100.00
2018-10-11T04:27:59.881Z,100.00
2018-10-11T04:30:28.643Z,100.00
2018-10-11T04:32:57.727Z,100.00
2018-10-11T04:35:26.784Z,100.00
2018-10-11T04:37:55.539Z,100.00
2018-10-11T04:40:24.320Z,100.00
2018-10-11T04:42:53.163Z,100.00
2018-10-11T04:45:21.851Z,100.00
2018-10-11T04:47:50.641Z,100.00
2018-10-11T04:50:19.432Z,100.00
2018-10-11T04:52:48.165Z,100.00
2018-10-11T04:55:16.895Z,100.00
2018-10-11T04:57:45.618Z,100.00
2018-10-11T05:00:14.361Z,100.00
2018-10-11T05:02:43.119Z,100.00
2018-10-11T05:05:11.945Z,100.00
2018-10-11T05:07:40.659Z,100.00
2018-10-11T05:10:09.629Z,100.00
2018-10-11T05:12:38.404Z,100.00
2018-10-11T05:15:07.770Z,100.00
2018-10-11T05:17:36.699Z,100.00
2018-10-11T05:20:05.528Z,100.00
2018-10-11T05:22:34.259Z,100.00
2018-10-11T05:25:03.045Z,100.00
2018-10-11T05:27:31.821Z,100.00
2018-10-11T05:30:00.627Z,100.00
2018-10-11T05:32:29.514Z,100.00
2018-10-11T05:34:58.297Z,100.00
2018-10-11T05:37:27.030Z,100.00
2018-10-11T05:39:56.000Z,100.00
2018-10-11T05:42:24.992Z,100.00
2018-10-11T05:44:59.039Z,100.00
2018-10-11T05:47:27.866Z,100.00
2018-10-11T05:49:56.667Z,100.00
2018-10-11T05:52:25.527Z,100.00
2018-10-11T05:54:54.378Z,100.00
2018-10-11T05:57:23.216Z,100.00
2018-10-11T05:59:52.044Z,100.00
2018-10-11T06:02:20.868Z,100.00
2018-10-11T06:04:49.735Z,100.00
2018-10-11T06:07:18.697Z,100.00
2018-10-11T06:09:47.539Z,100.00
2018-10-11T06:12:17.061Z,100.00
2018-10-11T06:14:46.367Z,100.00
2018-10-11T06:17:15.160Z,100.00
2018-10-11T06:19:44.025Z,100.00
2018-10-11T06:22:12.815Z,100.00
2018-10-11T06:24:41.677Z,100.00
2018-10-11T06:27:10.440Z,100.00
2018-10-11T06:29:39.247Z,100.00
2018-10-11T06:32:08.155Z,100.00
2018-10-11T06:34:36.962Z,100.00
2018-10-11T06:37:05.769Z,100.00
2018-10-11T06:39:34.661Z,100.00
2018-10-11T06:42:03.450Z,100.00
2018-10-11T06:44:32.373Z,100.00
2018-10-11T06:47:01.303Z,100.00
2018-10-11T06:49:30.127Z,100.00
2018-10-11T06:51:59.024Z,100.00
2018-10-11T06:54:27.882Z,100.00
2018-10-11T06:56:56.619Z,100.00
2018-10-11T06:59:25.428Z,100.00
2018-10-11T07:01:54.188Z,100.00
2018-10-11T07:04:22.896Z,100.00
2018-10-11T07:06:51.673Z,100.00
2018-10-11T07:09:20.418Z,100.00
2018-10-11T07:11:49.148Z,100.00
2018-10-11T07:14:17.910Z,100.00
2018-10-11T07:16:46.661Z,100.00
2018-10-11T07:19:15.446Z,100.00
2018-10-11T07:21:44.196Z,100.00
2018-10-11T07:24:13.004Z,100.00
2018-10-11T07:26:41.764Z,100.00
2018-10-11T07:29:10.579Z,100.00
2018-10-11T07:31:39.309Z,100.00
2018-10-11T07:34:08.072Z,100.00
2018-10-11T07:36:36.913Z,100.00
2018-10-11T07:39:09.132Z,100.00
2018-10-11T07:41:38.208Z,100.00
2018-10-11T07:44:07.392Z,100.00
2018-10-11T07:46:36.180Z,100.00
2018-10-11T07:49:06.025Z,100.00
2018-10-11T07:51:34.835Z,100.00
2018-10-11T07:54:03.796Z,100.00
2018-10-11T07:56:33.724Z,100.00
2018-10-11T07:59:02.681Z,100.00
2018-10-11T08:01:31.716Z,100.00
2018-10-11T08:04:00.581Z,100.00
2018-10-11T08:06:29.390Z,100.00
2018-10-11T08:08:58.257Z,100.00
2018-10-11T08:11:27.205Z,100.00
2018-10-11T08:13:55.883Z,100.00
2018-10-11T08:16:24.784Z,100.00
2018-10-11T08:18:53.576Z,100.00
2018-10-11T08:21:22.216Z,100.00
2018-10-11T08:23:51.004Z,100.00
2018-10-11T08:26:20.068Z,100.00
2018-10-11T08:28:48.524Z,100.00
2018-10-11T08:31:17.333Z,100.00
2018-10-11T08:33:46.119Z,100.00
2018-10-11T08:36:14.850Z,100.00
2018-10-11T08:38:43.605Z,100.00
2018-10-11T08:41:12.354Z,100.00
2018-10-11T08:43:41.143Z,100.00
2018-10-11T08:46:09.916Z,100.00
2018-10-11T08:48:38.692Z,100.00
2018-10-11T08:51:07.476Z,100.00
2018-10-11T08:53:36.307Z,100.00
2018-10-11T08:56:05.060Z,100.00
2018-10-11T08:58:33.797Z,100.00
2018-10-11T09:01:02.668Z,100.00
2018-10-11T09:03:31.467Z,100.00
2018-10-11T09:06:00.261Z,100.00
2018-10-11T09:08:29.077Z,100.00
2018-10-11T09:10:57.962Z,100.00
2018-10-11T09:13:26.689Z,100.00
2018-10-11T09:15:55.426Z,100.00
2018-10-11T09:18:24.191Z,100.00
2018-10-11T09:20:52.966Z,100.00
2018-10-11T09:23:21.820Z,100.00
2018-10-11T09:25:50.546Z,100.00
2018-10-11T09:28:19.417Z,100.00
2018-10-11T09:30:48.215Z,100.00
2018-10-11T09:33:16.964Z,100.00
2018-10-11T09:35:45.744Z,100.00
2018-10-11T09:38:14.541Z,100.00
2018-10-11T09:40:43.333Z,100.00
2018-10-11T09:43:12.165Z,100.00
2018-10-11T09:45:40.958Z,100.00
2018-10-11T09:48:09.679Z,100.00
2018-10-11T09:50:38.500Z,100.00
2018-10-11T09:53:07.290Z,100.00
2018-10-11T09:55:36.132Z,100.00
2018-10-11T09:58:04.912Z,100.00
2018-10-11T10:00:37.771Z,100.00
2018-10-11T10:03:06.721Z,100.00
2018-10-11T10:05:35.502Z,100.00
2018-10-11T10:08:04.303Z,100.00
2018-10-11T10:10:33.086Z,100.00
2018-10-11T10:13:01.876Z,100.00
2018-10-11T10:15:30.700Z,100.00
2018-10-11T10:17:59.456Z,100.00
2018-10-11T10:20:28.290Z,100.00
2018-10-11T10:22:57.092Z,100.00
2018-10-11T10:25:25.840Z,100.00
2018-10-11T10:27:54.627Z,100.00
2018-10-11T10:30:28.606Z,100.00
2018-10-11T10:32:57.412Z,100.00
2018-10-11T10:35:26.200Z,100.00
2018-10-11T10:37:55.006Z,100.00
2018-10-11T10:40:23.732Z,100.00
2018-10-11T10:42:52.488Z,100.00
2018-10-11T10:45:21.316Z,100.00
2018-10-11T10:47:50.115Z,100.00
2018-10-11T10:50:18.881Z,100.00
2018-10-11T10:52:48.542Z,100.00
2018-10-11T10:55:17.301Z,100.00
2018-10-11T10:57:46.070Z,100.00
2018-10-11T11:00:14.915Z,100.00
2018-10-11T11:02:43.676Z,100.00
2018-10-11T11:05:12.469Z,100.00
2018-10-11T11:07:41.272Z,100.00
2018-10-11T11:10:10.040Z,100.00
2018-10-11T11:12:38.798Z,100.00
2018-10-11T11:15:07.638Z,100.00
2018-10-11T11:17:36.434Z,100.00
2018-10-11T11:20:05.247Z,100.00
2018-10-11T11:22:34.155Z,100.00
2018-10-11T11:25:02.924Z,100.00
2018-10-11T11:27:31.639Z,100.00
2018-10-11T11:30:00.389Z,100.00
2018-10-11T11:32:29.115Z,100.00
2018-10-11T11:34:57.896Z,100.00
2018-10-11T11:37:26.608Z,100.00
2018-10-11T11:39:55.378Z,100.00
2018-10-11T11:42:24.095Z,100.00
2018-10-11T11:44:52.856Z,100.00
2018-10-11T11:47:21.544Z,100.00
2018-10-11T11:49:50.297Z,100.00
2018-10-11T11:52:19.678Z,100.00
2018-10-11T11:54:48.431Z,100.00
2018-10-11T11:57:17.253Z,100.00
2018-10-11T11:59:46.037Z,100.00
2018-10-11T12:02:14.874Z,100.00
2018-10-11T12:04:43.634Z,100.00
2018-10-11T12:07:12.408Z,100.00
2018-10-11T12:09:41.195Z,100.00
2018-10-11T12:12:10.424Z,100.00
2018-10-11T12:14:39.148Z,100.00
2018-10-11T12:17:07.968Z,100.00
2018-10-11T12:19:36.736Z,100.00
2018-10-11T12:22:05.586Z,100.00
2018-10-11T12:24:34.366Z,100.00
2018-10-11T12:27:03.092Z,100.00
2018-10-11T12:29:31.901Z,100.00
2018-10-11T12:32:00.660Z,100.00
2018-10-11T12:34:29.380Z,100.00
2018-10-11T12:36:58.065Z,100.00
2018-10-11T12:39:26.719Z,100.00
2018-10-11T12:41:55.476Z,100.00
2018-10-11T12:44:24.169Z,100.00
2018-10-11T12:46:52.947Z,100.00
2018-10-11T12:49:21.735Z,100.00
2018-10-11T12:51:50.506Z,100.00
2018-10-11T12:54:19.268Z,100.00
2018-10-11T12:56:47.980Z,100.00
2018-10-11T12:59:16.715Z,100.00
2018-10-11T13:01:45.441Z,100.00
2018-10-11T13:04:14.189Z,100.00
2018-10-11T13:06:42.899Z,100.00
2018-10-11T13:09:11.715Z,100.00
2018-10-11T13:11:40.496Z,100.00
2018-10-11T13:14:09.292Z,100.00
2018-10-11T13:16:38.033Z,100.00
2018-10-11T13:19:06.798Z,100.00
2018-10-11T13:21:35.660Z,100.00
2018-10-11T13:24:04.571Z,100.00
2018-10-11T13:26:33.346Z,100.00
2018-10-11T13:29:02.260Z,100.00
2018-10-11T13:31:30.994Z,100.00
2018-10-11T13:33:59.785Z,100.00
2018-10-11T13:36:28.643Z,100.00
2018-10-11T13:38:57.408Z,100.00
2018-10-11T13:41:26.365Z,100.00
2018-10-11T13:43:55.090Z,100.00
2018-10-11T13:46:23.849Z,100.00
2018-10-11T13:48:52.589Z,100.00
2018-10-11T13:51:21.332Z,100.00
2018-10-11T13:53:55.482Z,100.00
2018-10-11T13:56:19.033Z,100.00
2018-10-11T13:58:47.898Z,100.00
2018-10-11T14:01:16.704Z,100.00
2018-10-11T14:03:46.080Z,100.00
2018-10-11T14:06:15.258Z,100.00
2018-10-11T14:08:44.090Z,100.00
2018-10-11T14:11:12.827Z,100.00
2018-10-11T14:13:41.698Z,100.00
2018-10-11T14:16:10.446Z,98.98
2018-10-11T14:18:39.667Z,96.80
2018-10-11T14:21:09.474Z,95.44
2018-10-11T14:23:38.710Z,93.55
2018-10-11T14:26:07.859Z,92.67
2018-10-11T14:28:38.569Z,90.92
2018-10-11T14:31:07.409Z,90.02
2018-10-11T14:33:36.139Z,87.02
2018-10-11T14:36:04.926Z,84.70
2018-10-11T14:38:35.026Z,84.19
2018-10-11T14:41:03.806Z,84.58
2018-10-11T14:43:32.658Z,83.75
2018-10-11T14:46:01.329Z,83.78
2018-10-11T14:48:30.256Z,83.74
2018-10-11T14:50:59.173Z,82.44
2018-10-11T14:53:27.913Z,79.40
2018-10-11T14:55:56.704Z,78.96
2018-10-11T14:58:25.664Z,77.94
2018-10-11T15:00:54.484Z,77.41
2018-10-11T15:03:23.492Z,74.60
2018-10-11T15:05:52.207Z,73.58
2018-10-11T15:08:20.980Z,75.41
2018-10-11T15:10:49.767Z,76.25
2018-10-11T15:13:18.504Z,76.12
2018-10-11T15:15:47.448Z,75.97
2018-10-11T15:18:16.430Z,76.82
2018-10-11T15:20:45.223Z,77.18
2018-10-11T15:23:13.990Z,75.90
2018-10-11T15:25:42.806Z,75.69
2018-10-11T15:28:11.600Z,75.11
2018-10-11T15:30:40.490Z,75.69
2018-10-11T15:33:09.877Z,75.85
2018-10-11T15:35:38.809Z,75.29
2018-10-11T15:38:16.139Z,75.22
2018-10-11T15:40:45.443Z,74.36
2018-10-11T15:43:14.249Z,72.99
2018-10-11T15:45:43.033Z,72.18
2018-10-11T15:48:11.777Z,71.35
2018-10-11T15:50:40.648Z,70.47
2018-10-11T15:53:09.560Z,69.59
2018-10-11T15:55:38.345Z,68.96
2018-10-11T15:58:07.179Z,68.06
2018-10-11T16:00:35.932Z,67.47
2018-10-11T16:03:04.703Z,66.77
2018-10-11T16:05:33.542Z,66.78
2018-10-11T16:08:02.276Z,67.47
2018-10-11T16:10:31.032Z,67.94
2018-10-11T16:12:59.845Z,66.96
2018-10-11T16:15:28.634Z,67.79
2018-10-11T16:17:57.456Z,68.30
2018-10-11T16:20:26.223Z,68.47
2018-10-11T16:22:54.976Z,68.47
2018-10-11T16:25:23.720Z,67.89
2018-10-11T16:27:52.492Z,68.89
2018-10-11T16:30:21.240Z,68.83
2018-10-11T16:32:49.941Z,69.20
2018-10-11T16:35:18.652Z,69.36
2018-10-11T16:37:47.385Z,69.45
2018-10-11T16:40:16.092Z,69.84
2018-10-11T16:42:44.827Z,70.19
2018-10-11T16:45:13.708Z,70.76
2018-10-11T16:47:42.493Z,71.60
2018-10-11T16:50:11.311Z,72.62
2018-10-11T16:52:40.047Z,73.22
2018-10-11T16:55:08.808Z,74.53
2018-10-11T16:57:37.527Z,74.78
2018-10-11T17:00:06.731Z,75.88
2018-10-11T17:02:35.578Z,76.90
2018-10-11T17:05:04.399Z,77.12
2018-10-11T17:07:33.162Z,77.30
2018-10-11T17:10:02.062Z,78.37
2018-10-11T17:12:30.642Z,79.05
2018-10-11T17:14:59.437Z,79.71
2018-10-11T17:17:28.972Z,80.40
2018-10-11T17:19:57.695Z,80.95
2018-10-11T17:22:26.487Z,81.56
2018-10-11T17:24:55.208Z,82.12
2018-10-11T17:27:24.223Z,82.38
2018-10-11T17:29:53.004Z,82.64
2018-10-11T17:32:21.807Z,82.85
2018-10-11T17:34:50.654Z,83.33
2018-10-11T17:37:19.355Z,83.37
2018-10-11T17:39:48.106Z,83.84
2018-10-11T17:42:17.031Z,84.12
2018-10-11T17:44:45.854Z,84.43
2018-10-11T17:47:22.812Z,85.09
2018-10-11T17:49:51.654Z,85.23
2018-10-11T17:52:20.469Z,85.59
2018-10-11T17:54:52.122Z,86.19
2018-10-11T17:57:21.414Z,86.36
2018-10-11T17:59:50.215Z,87.16
2018-10-11T18:02:20.159Z,87.29
2018-10-11T18:04:49.454Z,87.91
2018-10-11T18:07:18.433Z,88.09
2018-10-11T18:09:47.355Z,88.80
2018-10-11T18:12:16.220Z,89.18
2018-10-11T18:14:44.991Z,89.61
2018-10-11T18:17:13.762Z,89.91
2018-10-11T18:19:42.737Z,89.81
2018-10-11T18:22:11.550Z,90.19
2018-10-11T18:24:40.475Z,90.78
2018-10-11T18:27:09.368Z,91.00
2018-10-11T18:29:38.215Z,91.16
2018-10-11T18:32:07.067Z,91.50
2018-10-11T18:34:36.103Z,92.17
2018-10-11T18:37:04.908Z,92.24
2018-10-11T18:39:33.767Z,91.95
2018-10-11T18:42:02.515Z,92.37
2018-10-11T18:44:31.445Z,92.88
2018-10-11T18:47:00.140Z,93.10
2018-10-11T18:49:28.895Z,93.47
2018-10-11T18:51:57.604Z,93.92
2018-10-11T18:54:26.317Z,94.19
2018-10-11T18:56:55.165Z,94.66
2018-10-11T18:59:23.940Z,95.07
2018-10-11T19:01:52.655Z,95.45
2018-10-11T19:04:21.420Z,96.00
2018-10-11T19:06:50.146Z,96.36
2018-10-11T19:09:18.999Z,96.63
2018-10-11T19:11:47.784Z,96.97
2018-10-11T19:14:16.622Z,97.22
2018-10-11T19:16:45.387Z,97.77
2018-10-11T19:19:14.155Z,97.91
2018-10-11T19:21:42.963Z,98.38
2018-10-11T19:24:11.717Z,98.67
2018-10-11T19:26:40.543Z,99.03
2018-10-11T19:29:09.323Z,99.49
2018-10-11T19:31:38.032Z,99.97
2018-10-11T19:34:06.890Z,99.96
2018-10-11T19:36:35.615Z,100.00
2018-10-11T19:39:04.769Z,100.00
2018-10-11T19:41:33.487Z,100.00
2018-10-11T19:44:02.305Z,100.00
2018-10-11T19:46:31.060Z,100.00
2018-10-11T19:48:59.817Z,100.00
2018-10-11T19:51:28.609Z,100.00
2018-10-11T19:53:57.339Z,100.00
2018-10-11T19:56:26.101Z,100.00
2018-10-11T19:58:54.820Z,100.00
2018-10-11T20:01:23.526Z,100.00
2018-10-11T20:03:52.266Z,100.00
2018-10-11T20:06:21.030Z,100.00
2018-10-11T20:08:49.766Z,100.00
2018-10-11T20:11:18.546Z,100.00
2018-10-11T20:13:47.284Z,100.00
2018-10-11T20:16:16.047Z,100.00
2018-10-11T20:18:44.804Z,100.00
2018-10-11T20:21:13.608Z,100.00
2018-10-11T20:23:42.348Z,100.00
2018-10-11T20:26:11.104Z,100.00
2018-10-11T20:28:39.874Z,100.00
2018-10-11T20:31:08.741Z,100.00
2018-10-11T20:33:37.544Z,100.00
2018-10-11T20:36:06.457Z,100.00
2018-10-11T20:38:35.315Z,100.00
2018-10-11T20:41:04.144Z,100.00
2018-10-11T20:43:32.959Z,100.00
2018-10-11T20:46:01.730Z,100.00
2018-10-11T20:48:30.493Z,100.00
2018-10-11T20:50:59.308Z,100.00
2018-10-11T20:53:28.068Z,100.00
2018-10-11T20:55:56.799Z,100.00
2018-10-11T20:58:25.627Z,100.00
2018-10-11T21:00:54.416Z,100.00
2018-10-11T21:03:23.202Z,100.00
2018-10-11T21:05:52.018Z,100.00
2018-10-11T21:08:20.778Z,100.00
2018-10-11T21:10:49.548Z,100.00
2018-10-11T21:13:18.279Z,100.00
2018-10-11T21:15:46.977Z,100.00
2018-10-11T21:18:15.663Z,100.00
2018-10-11T21:20:44.415Z,100.00
2018-10-11T21:23:13.205Z,100.00
2018-10-11T21:25:41.956Z,100.00
2018-10-11T21:28:10.816Z,100.00
2018-10-11T21:30:39.547Z,100.00
2018-10-11T21:33:08.297Z,100.00
2018-10-11T21:35:37.021Z,100.00
2018-10-11T21:38:06.227Z,100.00
2018-10-11T21:40:34.957Z,100.00
2018-10-11T21:43:03.715Z,100.00
2018-10-11T21:45:32.518Z,100.00
2018-10-11T21:48:01.228Z,100.00
2018-10-11T21:50:30.028Z,100.00
2018-10-11T21:52:58.776Z,100.00
2018-10-11T21:55:27.480Z,100.00
2018-10-11T21:57:56.242Z,100.00
2018-10-11T22:00:29.112Z,100.00
2018-10-11T22:02:57.877Z,100.00
2018-10-11T22:05:26.610Z,100.00
2018-10-11T22:07:55.400Z,100.00
2018-10-11T22:10:24.195Z,100.00
2018-10-11T22:12:52.968Z,100.00
2018-10-11T22:15:21.662Z,100.00
2018-10-11T22:17:50.364Z,100.00
2018-10-11T22:20:19.142Z,100.00
2018-10-11T22:22:47.923Z,100.00
2018-10-11T22:25:16.690Z,100.00
2018-10-11T22:27:45.428Z,100.00
2018-10-11T22:30:14.224Z,100.00
2018-10-11T22:32:42.967Z,100.00
2018-10-11T22:35:11.762Z,100.00
2018-10-11T22:37:40.549Z,100.00
2018-10-11T22:40:09.321Z,100.00
2018-10-11T22:42:38.392Z,100.00
2018-10-11T22:45:07.171Z,100.00
2018-10-11T22:47:35.884Z,100.00
2018-10-11T22:50:04.968Z,100.00
2018-10-11T22:52:33.740Z,100.00
2018-10-11T22:55:02.543Z,100.00
2018-10-11T22:57:31.349Z,100.00
2018-10-11T23:00:00.120Z,100.00
2018-10-11T23:02:28.869Z,100.00
2018-10-11T23:04:57.629Z,100.00
2018-10-11T23:07:26.433Z,100.00
2018-10-11T23:09:55.317Z,100.00
2018-10-11T23:12:24.419Z,100.00
2018-10-11T23:14:53.448Z,100.00
2018-10-11T23:17:22.168Z,100.00
2018-10-11T23:19:50.900Z,100.00
2018-10-11T23:22:19.681Z,100.00
2018-10-11T23:24:48.396Z,100.00
2018-10-11T23:27:17.152Z,100.00
2018-10-11T23:29:45.844Z,100.00
2018-10-11T23:32:14.540Z,100.00
2018-10-11T23:34:43.293Z,100.00
2018-10-11T23:37:12.008Z,100.00
2018-10-11T23:39:40.708Z,100.00
2018-10-11T23:42:09.415Z,100.00
2018-10-11T23:44:38.221Z,100.00
2018-10-11T23:47:07.111Z,100.00
2018-10-11T23:49:35.883Z,100.00
2018-10-11T23:52:04.708Z,100.00
2018-10-11T23:54:33.560Z,100.00
2018-10-11T23:57:02.338Z,100.00
2018-10-11T23:59:31.099Z,100.00
